sensor_id;sensor_type;location;lat;lon;timestamp;P1;durP1;ratioP1;P2;durP2;ratioP2
57828;SDS011;43657;52.698;6.314;2023-09-19T02:27:40;21.92;;;6.40;;
57828;SDS011;43657;52.698;6.314;2023-09-19T03:02:43;12.32;;;5.13;;
57828;SDS011;43657;52.698;6.314;2023-09-19T03:21:22;14.68;;;5.25;;
57828;SDS011;43657;52.698;6.314;2023-09-19T03:43:23;14.75;;;6.22;;
57828;SDS011;43657;52.698;6.314;2023-09-19T03:54:06;17.65;;;5.03;;
57828;SDS011;43657;52.698;6.314;2023-09-19T03:57:49;19.42;;;6.93;;
57828;SDS011;43657;52.698;6.314;2023-09-19T04:01:18;18.23;;;6.93;;
57828;SDS011;43657;52.698;6.314;2023-09-19T04:05:12;19.48;;;5.90;;
57828;SDS011;43657;52.698;6.314;2023-09-19T04:57:44;17.08;;;4.97;;
57828;SDS011;43657;52.698;6.314;2023-09-19T07:45:52;14.32;;;4.28;;
57828;SDS011;43657;52.698;6.314;2023-09-19T07:52:57;13.52;;;3.80;;
57828;SDS011;43657;52.698;6.314;2023-09-19T07:55:42;10.27;;;2.55;;
57828;SDS011;43657;52.698;6.314;2023-09-19T07:58:13;19.33;;;4.50;;
57828;SDS011;43657;52.698;6.314;2023-09-19T08:00:41;16.20;;;4.10;;
57828;SDS011;43657;52.698;6.314;2023-09-19T08:03:06;17.15;;;5.10;;
57828;SDS011;43657;52.698;6.314;2023-09-19T08:05:34;13.48;;;4.30;;
57828;SDS011;43657;52.698;6.314;2023-09-19T08:07:59;16.17;;;3.97;;
57828;SDS011;43657;52.698;6.314;2023-09-19T08:10:30;13.55;;;4.30;;
57828;SDS011;43657;52.698;6.314;2023-09-19T08:13:00;16.52;;;4.75;;
57828;SDS011;43657;52.698;6.314;2023-09-19T08:15:30;14.63;;;3.55;;
57828;SDS011;43657;52.698;6.314;2023-09-19T08:18:20;14.02;;;3.90;;
57828;SDS011;43657;52.698;6.314;2023-09-19T08:20:59;12.10;;;3.80;;
57828;SDS011;43657;52.698;6.314;2023-09-19T08:23:26;17.13;;;3.70;;
57828;SDS011;43657;52.698;6.314;2023-09-19T08:26:03;15.68;;;3.90;;
57828;SDS011;43657;52.698;6.314;2023-09-19T08:28:35;13.20;;;3.15;;
57828;SDS011;43657;52.698;6.314;2023-09-19T08:31:05;17.13;;;4.18;;
57828;SDS011;43657;52.698;6.314;2023-09-19T08:33:32;17.20;;;4.63;;
57828;SDS011;43657;52.698;6.314;2023-09-19T08:36:02;12.40;;;3.50;;
57828;SDS011;43657;52.698;6.314;2023-09-19T08:38:31;13.23;;;3.47;;
57828;SDS011;43657;52.698;6.314;2023-09-19T08:41:04;18.67;;;4.15;;
57828;SDS011;43657;52.698;6.314;2023-09-19T08:43:32;14.57;;;3.90;;
57828;SDS011;43657;52.698;6.314;2023-09-19T08:46:09;12.35;;;3.10;;
57828;SDS011;43657;52.698;6.314;2023-09-19T08:51:32;11.95;;;3.50;;
57828;SDS011;43657;52.698;6.314;2023-09-19T08:54:09;12.40;;;3.20;;
57828;SDS011;43657;52.698;6.314;2023-09-19T08:56:48;15.13;;;3.60;;
57828;SDS011;43657;52.698;6.314;2023-09-19T08:59:16;14.57;;;3.60;;
57828;SDS011;43657;52.698;6.314;2023-09-19T09:01:49;11.88;;;3.47;;
57828;SDS011;43657;52.698;6.314;2023-09-19T09:04:18;13.48;;;2.90;;
57828;SDS011;43657;52.698;6.314;2023-09-19T09:06:48;13.57;;;3.35;;
57828;SDS011;43657;52.698;6.314;2023-09-19T09:11:44;15.95;;;3.75;;
57828;SDS011;43657;52.698;6.314;2023-09-19T09:14:10;11.05;;;3.10;;
57828;SDS011;43657;52.698;6.314;2023-09-19T09:16:36;13.68;;;3.70;;
57828;SDS011;43657;52.698;6.314;2023-09-19T09:19:02;10.43;;;2.60;;
57828;SDS011;43657;52.698;6.314;2023-09-19T09:21:28;14.05;;;4.10;;
57828;SDS011;43657;52.698;6.314;2023-09-19T09:23:54;17.83;;;3.42;;
57828;SDS011;43657;52.698;6.314;2023-09-19T09:29:12;10.10;;;2.88;;
57828;SDS011;43657;52.698;6.314;2023-09-19T09:31:38;11.27;;;3.25;;
57828;SDS011;43657;52.698;6.314;2023-09-19T09:34:07;10.13;;;3.15;;
57828;SDS011;43657;52.698;6.314;2023-09-19T09:36:34;12.35;;;3.45;;
57828;SDS011;43657;52.698;6.314;2023-09-19T09:39:02;9.85;;;2.70;;
57828;SDS011;43657;52.698;6.314;2023-09-19T09:41:41;11.88;;;3.25;;
57828;SDS011;43657;52.698;6.314;2023-09-19T09:44:14;9.68;;;3.00;;
57828;SDS011;43657;52.698;6.314;2023-09-19T09:46:44;12.63;;;3.40;;
57828;SDS011;43657;52.698;6.314;2023-09-19T09:49:39;11.77;;;3.08;;
57828;SDS011;43657;52.698;6.314;2023-09-19T09:52:06;10.27;;;3.40;;
57828;SDS011;43657;52.698;6.314;2023-09-19T09:54:33;10.77;;;3.63;;
57828;SDS011;43657;52.698;6.314;2023-09-19T09:57:03;10.73;;;3.63;;
57828;SDS011;43657;52.698;6.314;2023-09-19T10:02:26;14.13;;;3.78;;
57828;SDS011;43657;52.698;6.314;2023-09-19T10:05:11;12.00;;;3.50;;
57828;SDS011;43657;52.698;6.314;2023-09-19T10:07:54;12.15;;;3.88;;
57828;SDS011;43657;52.698;6.314;2023-09-19T10:10:34;13.07;;;4.07;;
57828;SDS011;43657;52.698;6.314;2023-09-19T10:15:33;11.05;;;3.70;;
57828;SDS011;43657;52.698;6.314;2023-09-19T10:18:04;10.75;;;3.33;;
57828;SDS011;43657;52.698;6.314;2023-09-19T10:20:36;10.00;;;3.20;;
57828;SDS011;43657;52.698;6.314;2023-09-19T10:23:08;10.15;;;3.03;;
57828;SDS011;43657;52.698;6.314;2023-09-19T10:25:46;14.65;;;4.47;;
57828;SDS011;43657;52.698;6.314;2023-09-19T10:28:13;7.65;;;2.10;;
57828;SDS011;43657;52.698;6.314;2023-09-19T10:30:42;11.93;;;4.50;;
57828;SDS011;43657;52.698;6.314;2023-09-19T10:33:13;11.25;;;3.25;;
57828;SDS011;43657;52.698;6.314;2023-09-19T10:35:47;9.70;;;3.72;;
57828;SDS011;43657;52.698;6.314;2023-09-19T10:38:14;12.80;;;4.35;;
57828;SDS011;43657;52.698;6.314;2023-09-19T10:40:48;13.40;;;4.27;;
57828;SDS011;43657;52.698;6.314;2023-09-19T10:43:20;9.65;;;3.78;;
57828;SDS011;43657;52.698;6.314;2023-09-19T10:45:49;13.90;;;4.07;;
57828;SDS011;43657;52.698;6.314;2023-09-19T10:48:17;13.32;;;4.00;;
57828;SDS011;43657;52.698;6.314;2023-09-19T10:53:20;13.55;;;3.88;;
57828;SDS011;43657;52.698;6.314;2023-09-19T10:55:57;13.52;;;3.17;;
57828;SDS011;43657;52.698;6.314;2023-09-19T10:58:29;11.85;;;3.67;;
57828;SDS011;43657;52.698;6.314;2023-09-19T11:00:59;10.68;;;3.47;;
57828;SDS011;43657;52.698;6.314;2023-09-19T11:03:36;13.13;;;3.58;;
57828;SDS011;43657;52.698;6.314;2023-09-19T11:06:17;12.60;;;3.70;;
57828;SDS011;43657;52.698;6.314;2023-09-19T11:11:44;11.65;;;3.67;;
57828;SDS011;43657;52.698;6.314;2023-09-19T11:14:14;14.65;;;4.03;;
57828;SDS011;43657;52.698;6.314;2023-09-19T11:17:02;11.98;;;3.67;;
57828;SDS011;43657;52.698;6.314;2023-09-19T11:30:47;13.73;;;3.83;;
57828;SDS011;43657;52.698;6.314;2023-09-19T11:36:06;12.68;;;3.53;;
57828;SDS011;43657;52.698;6.314;2023-09-19T11:46:51;10.60;;;3.05;;
57828;SDS011;43657;52.698;6.314;2023-09-19T11:49:17;13.30;;;3.63;;
57828;SDS011;43657;52.698;6.314;2023-09-19T11:51:48;13.07;;;3.63;;
57828;SDS011;43657;52.698;6.314;2023-09-19T11:54:19;10.52;;;3.35;;
57828;SDS011;43657;52.698;6.314;2023-09-19T11:56:49;10.75;;;3.10;;
57828;SDS011;43657;52.698;6.314;2023-09-19T11:59:23;8.48;;;3.30;;
57828;SDS011;43657;52.698;6.314;2023-09-19T12:01:54;9.27;;;2.72;;
57828;SDS011;43657;52.698;6.314;2023-09-19T12:04:36;11.95;;;3.70;;
57828;SDS011;43657;52.698;6.314;2023-09-19T12:07:06;8.98;;;3.00;;
57828;SDS011;43657;52.698;6.314;2023-09-19T12:09:39;7.57;;;2.88;;
57828;SDS011;43657;52.698;6.314;2023-09-19T12:12:09;10.93;;;3.00;;
57828;SDS011;43657;52.698;6.314;2023-09-19T12:14:37;10.60;;;2.80;;
57828;SDS011;43657;52.698;6.314;2023-09-19T12:17:04;9.65;;;2.70;;
57828;SDS011;43657;52.698;6.314;2023-09-19T12:19:30;11.20;;;2.70;;
57828;SDS011;43657;52.698;6.314;2023-09-19T12:21:56;9.20;;;2.83;;
57828;SDS011;43657;52.698;6.314;2023-09-19T12:24:34;7.57;;;2.90;;
57828;SDS011;43657;52.698;6.314;2023-09-19T12:27:04;9.15;;;2.50;;
57828;SDS011;43657;52.698;6.314;2023-09-19T12:29:31;11.00;;;2.75;;
57828;SDS011;43657;52.698;6.314;2023-09-19T12:32:06;9.18;;;2.78;;
57828;SDS011;43657;52.698;6.314;2023-09-19T12:34:32;9.63;;;3.03;;
57828;SDS011;43657;52.698;6.314;2023-09-19T12:37:06;10.85;;;3.13;;
57828;SDS011;43657;52.698;6.314;2023-09-19T12:39:54;7.75;;;2.40;;
57828;SDS011;43657;52.698;6.314;2023-09-19T12:42:47;7.20;;;2.13;;
57828;SDS011;43657;52.698;6.314;2023-09-19T12:45:14;10.60;;;2.72;;
57828;SDS011;43657;52.698;6.314;2023-09-19T12:53:31;8.82;;;2.78;;
57828;SDS011;43657;52.698;6.314;2023-09-19T12:56:15;10.02;;;2.92;;
57828;SDS011;43657;52.698;6.314;2023-09-19T12:58:49;7.05;;;2.63;;
57828;SDS011;43657;52.698;6.314;2023-09-19T13:01:23;7.97;;;2.83;;
57828;SDS011;43657;52.698;6.314;2023-09-19T13:06:37;6.90;;;2.35;;
57828;SDS011;43657;52.698;6.314;2023-09-19T13:09:08;6.55;;;2.22;;
57828;SDS011;43657;52.698;6.314;2023-09-19T13:11:38;8.48;;;2.40;;
57828;SDS011;43657;52.698;6.314;2023-09-19T13:14:16;8.73;;;2.53;;
57828;SDS011;43657;52.698;6.314;2023-09-19T13:16:53;8.05;;;2.70;;
57828;SDS011;43657;52.698;6.314;2023-09-19T13:25:14;9.60;;;2.38;;
57828;SDS011;43657;52.698;6.314;2023-09-19T13:27:43;5.97;;;2.30;;
57828;SDS011;43657;52.698;6.314;2023-09-19T13:30:11;8.90;;;2.50;;
57828;SDS011;43657;52.698;6.314;2023-09-19T13:32:38;9.95;;;2.58;;
57828;SDS011;43657;52.698;6.314;2023-09-19T13:35:05;10.77;;;2.95;;
57828;SDS011;43657;52.698;6.314;2023-09-19T13:37:34;6.60;;;2.67;;
57828;SDS011;43657;52.698;6.314;2023-09-19T13:40:09;8.27;;;2.30;;
57828;SDS011;43657;52.698;6.314;2023-09-19T13:42:36;11.77;;;2.53;;
57828;SDS011;43657;52.698;6.314;2023-09-19T13:45:09;4.72;;;2.03;;
57828;SDS011;43657;52.698;6.314;2023-09-19T13:47:37;6.95;;;2.35;;
57828;SDS011;43657;52.698;6.314;2023-09-19T13:50:03;7.47;;;2.25;;
57828;SDS011;43657;52.698;6.314;2023-09-19T13:52:30;8.27;;;2.63;;
57828;SDS011;43657;52.698;6.314;2023-09-19T13:54:56;6.43;;;2.22;;
57828;SDS011;43657;52.698;6.314;2023-09-19T13:57:26;7.35;;;1.90;;
57828;SDS011;43657;52.698;6.314;2023-09-19T13:59:52;7.28;;;1.90;;
57828;SDS011;43657;52.698;6.314;2023-09-19T14:02:21;6.97;;;2.08;;
57828;SDS011;43657;52.698;6.314;2023-09-19T14:04:50;7.85;;;2.28;;
57828;SDS011;43657;52.698;6.314;2023-09-19T14:07:18;5.75;;;2.00;;
57828;SDS011;43657;52.698;6.314;2023-09-19T14:09:45;8.95;;;2.15;;
57828;SDS011;43657;52.698;6.314;2023-09-19T14:12:10;5.30;;;1.83;;
57828;SDS011;43657;52.698;6.314;2023-09-19T14:14:36;7.72;;;2.00;;
57828;SDS011;43657;52.698;6.314;2023-09-19T14:17:02;6.47;;;1.42;;
57828;SDS011;43657;52.698;6.314;2023-09-19T14:19:32;6.38;;;1.90;;
57828;SDS011;43657;52.698;6.314;2023-09-19T14:21:58;6.60;;;1.55;;
57828;SDS011;43657;52.698;6.314;2023-09-19T14:24:25;6.53;;;1.80;;
57828;SDS011;43657;52.698;6.314;2023-09-19T14:26:51;5.80;;;1.70;;
57828;SDS011;43657;52.698;6.314;2023-09-19T14:29:16;6.50;;;1.85;;
57828;SDS011;43657;52.698;6.314;2023-09-19T14:31:42;3.78;;;1.58;;
57828;SDS011;43657;52.698;6.314;2023-09-19T14:34:08;4.28;;;2.03;;
57828;SDS011;43657;52.698;6.314;2023-09-19T14:36:37;5.60;;;1.77;;
57828;SDS011;43657;52.698;6.314;2023-09-19T14:39:03;8.63;;;2.13;;
57828;SDS011;43657;52.698;6.314;2023-09-19T14:41:29;5.82;;;1.70;;
57828;SDS011;43657;52.698;6.314;2023-09-19T14:43:56;6.93;;;2.10;;
57828;SDS011;43657;52.698;6.314;2023-09-19T14:46:21;8.23;;;1.75;;
57828;SDS011;43657;52.698;6.314;2023-09-19T14:48:50;6.53;;;1.98;;
57828;SDS011;43657;52.698;6.314;2023-09-19T14:51:16;6.05;;;1.85;;
57828;SDS011;43657;52.698;6.314;2023-09-19T14:53:44;6.60;;;2.00;;
57828;SDS011;43657;52.698;6.314;2023-09-19T14:56:11;5.38;;;1.63;;
57828;SDS011;43657;52.698;6.314;2023-09-19T14:58:37;7.10;;;1.98;;
57828;SDS011;43657;52.698;6.314;2023-09-19T15:01:07;5.13;;;1.90;;
57828;SDS011;43657;52.698;6.314;2023-09-19T15:03:35;5.28;;;1.90;;
57828;SDS011;43657;52.698;6.314;2023-09-19T15:06:08;5.95;;;1.98;;
57828;SDS011;43657;52.698;6.314;2023-09-19T15:08:39;6.95;;;1.80;;
57828;SDS011;43657;52.698;6.314;2023-09-19T15:11:11;5.00;;;1.60;;
57828;SDS011;43657;52.698;6.314;2023-09-19T15:13:37;5.70;;;1.83;;
57828;SDS011;43657;52.698;6.314;2023-09-19T15:16:04;3.85;;;1.70;;
57828;SDS011;43657;52.698;6.314;2023-09-19T15:18:33;6.43;;;2.10;;
57828;SDS011;43657;52.698;6.314;2023-09-19T15:21:11;5.97;;;2.00;;
57828;SDS011;43657;52.698;6.314;2023-09-19T15:23:39;8.55;;;2.03;;
57828;SDS011;43657;52.698;6.314;2023-09-19T15:26:07;7.63;;;2.42;;
57828;SDS011;43657;52.698;6.314;2023-09-19T15:28:33;5.82;;;1.63;;
57828;SDS011;43657;52.698;6.314;2023-09-19T15:31:09;8.63;;;2.00;;
57828;SDS011;43657;52.698;6.314;2023-09-19T15:33:36;7.47;;;2.00;;
57828;SDS011;43657;52.698;6.314;2023-09-19T15:41:15;6.03;;;2.00;;
57828;SDS011;43657;52.698;6.314;2023-09-19T15:43:41;8.25;;;2.20;;
57828;SDS011;43657;52.698;6.314;2023-09-19T15:46:06;7.22;;;2.28;;
57828;SDS011;43657;52.698;6.314;2023-09-19T15:48:32;8.20;;;2.25;;
57828;SDS011;43657;52.698;6.314;2023-09-19T15:51:02;7.32;;;2.45;;
57828;SDS011;43657;52.698;6.314;2023-09-19T15:53:29;8.00;;;2.10;;
57828;SDS011;43657;52.698;6.314;2023-09-19T15:56:12;7.15;;;2.25;;
57828;SDS011;43657;52.698;6.314;2023-09-19T15:58:41;8.75;;;2.65;;
57828;SDS011;43657;52.698;6.314;2023-09-19T16:01:09;8.95;;;2.38;;
57828;SDS011;43657;52.698;6.314;2023-09-19T16:03:39;6.43;;;2.38;;
57828;SDS011;43657;52.698;6.314;2023-09-19T16:06:12;6.35;;;2.15;;
57828;SDS011;43657;52.698;6.314;2023-09-19T16:08:42;5.93;;;2.13;;
57828;SDS011;43657;52.698;6.314;2023-09-19T16:11:10;8.60;;;2.60;;
57828;SDS011;43657;52.698;6.314;2023-09-19T16:13:39;6.43;;;2.25;;
57828;SDS011;43657;52.698;6.314;2023-09-19T16:16:06;9.55;;;2.90;;
57828;SDS011;43657;52.698;6.314;2023-09-19T16:18:39;6.32;;;2.72;;
57828;SDS011;43657;52.698;6.314;2023-09-19T16:21:09;6.75;;;2.70;;
57828;SDS011;43657;52.698;6.314;2023-09-19T16:23:36;7.20;;;2.88;;
57828;SDS011;43657;52.698;6.314;2023-09-19T16:26:09;9.02;;;3.38;;
57828;SDS011;43657;52.698;6.314;2023-09-19T16:28:35;6.97;;;2.80;;
57828;SDS011;43657;52.698;6.314;2023-09-19T16:31:05;10.10;;;3.13;;
57828;SDS011;43657;52.698;6.314;2023-09-19T16:33:32;6.55;;;3.10;;
57828;SDS011;43657;52.698;6.314;2023-09-19T16:35:59;10.88;;;3.72;;
57828;SDS011;43657;52.698;6.314;2023-09-19T16:38:26;8.73;;;2.80;;
57828;SDS011;43657;52.698;6.314;2023-09-19T16:40:55;8.85;;;2.90;;
57828;SDS011;43657;52.698;6.314;2023-09-19T16:43:23;8.85;;;3.25;;
57828;SDS011;43657;52.698;6.314;2023-09-19T16:45:59;6.47;;;2.38;;
57828;SDS011;43657;52.698;6.314;2023-09-19T16:48:26;9.25;;;3.08;;
57828;SDS011;43657;52.698;6.314;2023-09-19T16:50:53;7.88;;;3.00;;
57828;SDS011;43657;52.698;6.314;2023-09-19T16:53:19;9.55;;;2.88;;
57828;SDS011;43657;52.698;6.314;2023-09-19T16:55:46;6.28;;;2.67;;
57828;SDS011;43657;52.698;6.314;2023-09-19T16:58:13;7.75;;;2.75;;
57828;SDS011;43657;52.698;6.314;2023-09-19T17:00:39;9.27;;;2.85;;
57828;SDS011;43657;52.698;6.314;2023-09-19T17:03:05;7.50;;;2.90;;
57828;SDS011;43657;52.698;6.314;2023-09-19T17:05:31;8.15;;;2.80;;
57828;SDS011;43657;52.698;6.314;2023-09-19T17:07:57;9.23;;;3.15;;
57828;SDS011;43657;52.698;6.314;2023-09-19T17:10:29;8.48;;;3.17;;
57828;SDS011;43657;52.698;6.314;2023-09-19T17:12:57;11.45;;;3.88;;
57828;SDS011;43657;52.698;6.314;2023-09-19T17:15:23;9.60;;;3.25;;
57828;SDS011;43657;52.698;6.314;2023-09-19T17:17:49;7.97;;;3.05;;
57828;SDS011;43657;52.698;6.314;2023-09-19T17:20:16;10.70;;;3.38;;
57828;SDS011;43657;52.698;6.314;2023-09-19T17:22:42;9.27;;;3.25;;
57828;SDS011;43657;52.698;6.314;2023-09-19T17:25:08;8.88;;;3.80;;
57828;SDS011;43657;52.698;6.314;2023-09-19T17:27:34;5.85;;;2.55;;
57828;SDS011;43657;52.698;6.314;2023-09-19T17:30:00;9.60;;;3.42;;
57828;SDS011;43657;52.698;6.314;2023-09-19T17:32:26;7.20;;;3.20;;
57828;SDS011;43657;52.698;6.314;2023-09-19T17:34:52;9.98;;;3.38;;
57828;SDS011;43657;52.698;6.314;2023-09-19T17:37:17;7.03;;;3.28;;
57828;SDS011;43657;52.698;6.314;2023-09-19T17:39:43;11.25;;;3.55;;
57828;SDS011;43657;52.698;6.314;2023-09-19T17:42:09;7.97;;;3.42;;
57828;SDS011;43657;52.698;6.314;2023-09-19T17:44:37;7.45;;;2.85;;
57828;SDS011;43657;52.698;6.314;2023-09-19T17:47:04;10.15;;;3.50;;
57828;SDS011;43657;52.698;6.314;2023-09-19T17:49:29;12.48;;;3.15;;
57828;SDS011;43657;52.698;6.314;2023-09-19T17:51:55;10.25;;;3.38;;
57828;SDS011;43657;52.698;6.314;2023-09-19T17:54:21;7.88;;;3.20;;
57828;SDS011;43657;52.698;6.314;2023-09-19T17:56:48;8.57;;;3.50;;
57828;SDS011;43657;52.698;6.314;2023-09-19T17:59:14;8.93;;;3.55;;
57828;SDS011;43657;52.698;6.314;2023-09-19T18:01:40;7.03;;;2.90;;
57828;SDS011;43657;52.698;6.314;2023-09-19T18:04:08;7.80;;;3.30;;
57828;SDS011;43657;52.698;6.314;2023-09-19T18:06:35;9.35;;;3.90;;
57828;SDS011;43657;52.698;6.314;2023-09-19T18:09:02;7.57;;;3.20;;
57828;SDS011;43657;52.698;6.314;2023-09-19T18:11:32;9.10;;;3.45;;
57828;SDS011;43657;52.698;6.314;2023-09-19T18:13:58;8.48;;;3.33;;
57828;SDS011;43657;52.698;6.314;2023-09-19T18:16:24;8.65;;;3.67;;
57828;SDS011;43657;52.698;6.314;2023-09-19T18:18:52;10.20;;;3.72;;
57828;SDS011;43657;52.698;6.314;2023-09-19T18:21:20;10.05;;;3.67;;
57828;SDS011;43657;52.698;6.314;2023-09-19T18:26:18;7.93;;;2.90;;
57828;SDS011;43657;52.698;6.314;2023-09-19T18:28:44;9.93;;;4.40;;
57828;SDS011;43657;52.698;6.314;2023-09-19T18:31:10;9.18;;;3.72;;
57828;SDS011;43657;52.698;6.314;2023-09-19T18:33:36;12.90;;;4.93;;
57828;SDS011;43657;52.698;6.314;2023-09-19T18:36:02;11.63;;;4.68;;
57828;SDS011;43657;52.698;6.314;2023-09-19T18:38:31;9.60;;;4.45;;
57828;SDS011;43657;52.698;6.314;2023-09-19T18:40:57;14.05;;;4.90;;
57828;SDS011;43657;52.698;6.314;2023-09-19T18:43:23;10.70;;;4.85;;
57828;SDS011;43657;52.698;6.314;2023-09-19T18:45:55;11.27;;;4.55;;
57828;SDS011;43657;52.698;6.314;2023-09-19T18:48:21;12.25;;;4.40;;
57828;SDS011;43657;52.698;6.314;2023-09-19T18:50:47;11.13;;;4.90;;
57828;SDS011;43657;52.698;6.314;2023-09-19T18:53:14;11.02;;;5.53;;
57828;SDS011;43657;52.698;6.314;2023-09-19T18:55:39;11.85;;;4.65;;
57828;SDS011;43657;52.698;6.314;2023-09-19T18:58:07;8.70;;;4.38;;
57828;SDS011;43657;52.698;6.314;2023-09-19T19:00:33;9.45;;;4.40;;
57828;SDS011;43657;52.698;6.314;2023-09-19T19:02:59;11.82;;;5.35;;
57828;SDS011;43657;52.698;6.314;2023-09-19T19:05:24;12.20;;;5.38;;
57828;SDS011;43657;52.698;6.314;2023-09-19T19:07:50;10.15;;;4.97;;
57828;SDS011;43657;52.698;6.314;2023-09-19T19:10:16;13.00;;;5.47;;
57828;SDS011;43657;52.698;6.314;2023-09-19T19:12:42;12.23;;;5.90;;
57828;SDS011;43657;52.698;6.314;2023-09-19T19:15:08;11.02;;;5.43;;
57828;SDS011;43657;52.698;6.314;2023-09-19T19:17:34;11.45;;;6.90;;
57828;SDS011;43657;52.698;6.314;2023-09-19T19:20:01;11.27;;;6.30;;
57828;SDS011;43657;52.698;6.314;2023-09-19T19:22:28;11.85;;;5.72;;
57828;SDS011;43657;52.698;6.314;2023-09-19T19:24:54;12.90;;;5.45;;
57828;SDS011;43657;52.698;6.314;2023-09-19T19:27:20;15.02;;;6.90;;
57828;SDS011;43657;52.698;6.314;2023-09-19T19:29:46;10.50;;;5.65;;
57828;SDS011;43657;52.698;6.314;2023-09-19T19:32:13;16.65;;;6.82;;
57828;SDS011;43657;52.698;6.314;2023-09-19T19:34:38;12.40;;;6.05;;
57828;SDS011;43657;52.698;6.314;2023-09-19T19:37:04;10.80;;;6.22;;
57828;SDS011;43657;52.698;6.314;2023-09-19T19:39:30;14.50;;;6.07;;
57828;SDS011;43657;52.698;6.314;2023-09-19T19:41:56;15.15;;;6.88;;
57828;SDS011;43657;52.698;6.314;2023-09-19T19:44:23;13.45;;;6.78;;
57828;SDS011;43657;52.698;6.314;2023-09-19T19:46:50;12.98;;;6.93;;
57828;SDS011;43657;52.698;6.314;2023-09-19T19:49:16;12.30;;;5.57;;
57828;SDS011;43657;52.698;6.314;2023-09-19T19:51:41;10.13;;;6.07;;
57828;SDS011;43657;52.698;6.314;2023-09-19T19:54:09;12.55;;;7.00;;
57828;SDS011;43657;52.698;6.314;2023-09-19T19:56:37;11.27;;;7.25;;
57828;SDS011;43657;52.698;6.314;2023-09-19T19:59:06;10.82;;;7.28;;
57828;SDS011;43657;52.698;6.314;2023-09-19T20:01:31;11.90;;;6.50;;
57828;SDS011;43657;52.698;6.314;2023-09-19T20:03:57;12.27;;;6.32;;
57828;SDS011;43657;52.698;6.314;2023-09-19T20:06:23;14.88;;;8.55;;
57828;SDS011;43657;52.698;6.314;2023-09-19T20:08:49;13.05;;;7.45;;
57828;SDS011;43657;52.698;6.314;2023-09-19T20:11:16;12.38;;;8.02;;
57828;SDS011;43657;52.698;6.314;2023-09-19T20:13:43;13.60;;;8.95;;
57828;SDS011;43657;52.698;6.314;2023-09-19T20:16:09;11.75;;;7.53;;
57828;SDS011;43657;52.698;6.314;2023-09-19T20:18:34;14.35;;;8.80;;
57828;SDS011;43657;52.698;6.314;2023-09-19T20:21:05;13.45;;;8.63;;
57828;SDS011;43657;52.698;6.314;2023-09-19T20:23:36;12.32;;;8.02;;
57828;SDS011;43657;52.698;6.314;2023-09-19T20:26:02;13.43;;;7.88;;
57828;SDS011;43657;52.698;6.314;2023-09-19T20:28:29;11.98;;;7.63;;
57828;SDS011;43657;52.698;6.314;2023-09-19T20:30:55;11.43;;;7.50;;
57828;SDS011;43657;52.698;6.314;2023-09-19T20:33:22;13.40;;;7.82;;
57828;SDS011;43657;52.698;6.314;2023-09-19T20:35:48;13.50;;;7.72;;
57828;SDS011;43657;52.698;6.314;2023-09-19T20:38:14;14.13;;;7.50;;
57828;SDS011;43657;52.698;6.314;2023-09-19T20:40:40;12.43;;;7.70;;
57828;SDS011;43657;52.698;6.314;2023-09-19T20:43:06;11.40;;;6.88;;
57828;SDS011;43657;52.698;6.314;2023-09-19T20:45:31;13.77;;;8.32;;
57828;SDS011;43657;52.698;6.314;2023-09-19T20:48:05;14.40;;;7.65;;
57828;SDS011;43657;52.698;6.314;2023-09-19T20:50:31;12.82;;;6.28;;
57828;SDS011;43657;52.698;6.314;2023-09-19T20:52:58;13.88;;;7.50;;
57828;SDS011;43657;52.698;6.314;2023-09-19T20:55:24;13.23;;;7.80;;
57828;SDS011;43657;52.698;6.314;2023-09-19T20:57:49;14.68;;;7.47;;
57828;SDS011;43657;52.698;6.314;2023-09-19T21:00:16;12.40;;;6.63;;
57828;SDS011;43657;52.698;6.314;2023-09-19T21:02:45;13.98;;;8.02;;
57828;SDS011;43657;52.698;6.314;2023-09-19T21:05:11;13.82;;;7.40;;
57828;SDS011;43657;52.698;6.314;2023-09-19T21:07:37;12.80;;;7.53;;
57828;SDS011;43657;52.698;6.314;2023-09-19T21:10:03;13.57;;;8.40;;
57828;SDS011;43657;52.698;6.314;2023-09-19T21:12:30;13.90;;;8.82;;
57828;SDS011;43657;52.698;6.314;2023-09-19T21:14:58;10.60;;;6.50;;
57828;SDS011;43657;52.698;6.314;2023-09-19T21:17:25;10.65;;;6.60;;
57828;SDS011;43657;52.698;6.314;2023-09-19T21:19:51;12.65;;;6.63;;
57828;SDS011;43657;52.698;6.314;2023-09-19T21:22:17;9.13;;;5.85;;
57828;SDS011;43657;52.698;6.314;2023-09-19T21:24:43;10.05;;;6.47;;
57828;SDS011;43657;52.698;6.314;2023-09-19T21:27:11;12.05;;;6.65;;
57828;SDS011;43657;52.698;6.314;2023-09-19T21:29:38;11.10;;;5.65;;
57828;SDS011;43657;52.698;6.314;2023-09-19T21:32:04;11.70;;;6.25;;
57828;SDS011;43657;52.698;6.314;2023-09-19T21:34:29;9.13;;;5.90;;
57828;SDS011;43657;52.698;6.314;2023-09-19T21:36:55;12.85;;;6.00;;
57828;SDS011;43657;52.698;6.314;2023-09-19T21:39:22;12.00;;;6.10;;
57828;SDS011;43657;52.698;6.314;2023-09-19T21:41:47;11.35;;;6.28;;
57828;SDS011;43657;52.698;6.314;2023-09-19T21:44:13;12.38;;;6.07;;
57828;SDS011;43657;52.698;6.314;2023-09-19T21:46:39;10.73;;;5.53;;
57828;SDS011;43657;52.698;6.314;2023-09-19T21:49:04;10.65;;;5.82;;
57828;SDS011;43657;52.698;6.314;2023-09-19T21:51:30;10.95;;;5.57;;
57828;SDS011;43657;52.698;6.314;2023-09-19T21:53:56;9.88;;;5.60;;
57828;SDS011;43657;52.698;6.314;2023-09-19T21:56:23;10.13;;;5.50;;
57828;SDS011;43657;52.698;6.314;2023-09-19T21:58:49;10.95;;;4.57;;
57828;SDS011;43657;52.698;6.314;2023-09-19T22:01:15;8.25;;;4.15;;
57828;SDS011;43657;52.698;6.314;2023-09-19T22:03:47;10.85;;;5.78;;
57828;SDS011;43657;52.698;6.314;2023-09-19T22:06:13;8.20;;;4.50;;
57828;SDS011;43657;52.698;6.314;2023-09-19T22:08:38;8.93;;;5.38;;
57828;SDS011;43657;52.698;6.314;2023-09-19T22:11:04;12.07;;;4.63;;
57828;SDS011;43657;52.698;6.314;2023-09-19T22:13:34;11.40;;;4.85;;
57828;SDS011;43657;52.698;6.314;2023-09-19T22:16:00;10.27;;;5.25;;
57828;SDS011;43657;52.698;6.314;2023-09-19T22:18:27;9.40;;;5.05;;
57828;SDS011;43657;52.698;6.314;2023-09-19T22:20:54;11.05;;;5.32;;
57828;SDS011;43657;52.698;6.314;2023-09-19T22:23:36;11.45;;;5.43;;
57828;SDS011;43657;52.698;6.314;2023-09-19T22:26:06;10.57;;;5.13;;
57828;SDS011;43657;52.698;6.314;2023-09-19T22:28:33;10.10;;;5.20;;
57828;SDS011;43657;52.698;6.314;2023-09-19T22:31:05;11.85;;;5.53;;
57828;SDS011;43657;52.698;6.314;2023-09-19T22:33:37;10.32;;;5.03;;
57828;SDS011;43657;52.698;6.314;2023-09-19T22:36:03;12.20;;;5.10;;
57828;SDS011;43657;52.698;6.314;2023-09-19T22:38:30;12.10;;;4.80;;
57828;SDS011;43657;52.698;6.314;2023-09-19T22:41:01;10.88;;;5.30;;
57828;SDS011;43657;52.698;6.314;2023-09-19T22:43:34;9.15;;;4.45;;
57828;SDS011;43657;52.698;6.314;2023-09-19T22:46:03;10.93;;;5.03;;
57828;SDS011;43657;52.698;6.314;2023-09-19T22:48:35;8.68;;;4.63;;
57828;SDS011;43657;52.698;6.314;2023-09-19T22:51:02;10.40;;;4.47;;
57828;SDS011;43657;52.698;6.314;2023-09-19T22:53:30;12.68;;;4.80;;
57828;SDS011;43657;52.698;6.314;2023-09-19T22:56:00;7.90;;;4.25;;
57828;SDS011;43657;52.698;6.314;2023-09-19T22:58:35;8.95;;;4.60;;
57828;SDS011;43657;52.698;6.314;2023-09-19T23:01:11;9.88;;;4.93;;
57828;SDS011;43657;52.698;6.314;2023-09-19T23:03:52;14.40;;;5.32;;
57828;SDS011;43657;52.698;6.314;2023-09-19T23:06:37;11.20;;;4.85;;
57828;SDS011;43657;52.698;6.314;2023-09-19T23:09:05;11.32;;;4.97;;
57828;SDS011;43657;52.698;6.314;2023-09-19T23:11:34;10.02;;;6.15;;
57828;SDS011;43657;52.698;6.314;2023-09-19T23:14:00;11.00;;;5.13;;
57828;SDS011;43657;52.698;6.314;2023-09-19T23:16:29;11.27;;;5.10;;
57828;SDS011;43657;52.698;6.314;2023-09-19T23:19:01;9.48;;;5.20;;
57828;SDS011;43657;52.698;6.314;2023-09-19T23:21:51;10.10;;;4.82;;